Talca, Chile
Current Conditions -  °F | °C
As of 10:00 AM on Thursday 23 Oct 2014 (Local Time) from SCIC Reporting Station
Clear Clear  
Wind Chill: 66°   Ceiling: Unl
Heat Index: 66°   Visibility: 6mi
Dew Point: 52°   Wind: 3mph
Humidity: 60%   Direction: 180°S
Pressure: 29.97"   Gusts: NA
Location:  35.42°S, 71.66°W
Report Text: SCIC 231300Z 18003KT CAVOK 19/11 Q1015
Loading
Personal Weather Stations






























Interactive Weather Map
Tropical Storm Tracking
New forecast layout! Learn more

10-Day Weather Forecast

Advertisements
Track Severe Weather on mobile